createdAt,value
2018-04-06T00:00:03.367Z,74.13
2018-04-06T00:02:30.715Z,74.50
2018-04-06T00:04:58.771Z,74.99
2018-04-06T00:07:25.731Z,75.04
2018-04-06T00:09:52.354Z,75.27
2018-04-06T00:12:19.314Z,75.05
2018-04-06T00:14:45.870Z,75.12
2018-04-06T00:17:12.471Z,75.49
2018-04-06T00:19:39.116Z,75.61
2018-04-06T00:22:06.739Z,75.55
2018-04-06T00:24:33.363Z,75.32
2018-04-06T00:26:59.942Z,75.28
2018-04-06T00:29:26.533Z,75.13
2018-04-06T00:31:53.142Z,74.90
2018-04-06T00:34:19.807Z,74.53
2018-04-06T00:36:47.163Z,74.53
2018-04-06T00:39:13.782Z,73.81
2018-04-06T00:41:40.390Z,73.39
2018-04-06T00:44:07.014Z,73.65
2018-04-06T00:46:33.637Z,74.12
2018-04-06T00:49:00.550Z,74.09
2018-04-06T00:51:27.103Z,74.19
2018-04-06T00:53:53.718Z,73.01
2018-04-06T00:56:20.330Z,73.94
2018-04-06T00:58:46.989Z,73.64
2018-04-06T01:01:14.380Z,74.48
2018-04-06T01:03:40.971Z,74.26
2018-04-06T01:06:07.526Z,74.91
2018-04-06T01:08:34.216Z,75.09
2018-04-06T01:11:00.802Z,75.21
2018-04-06T01:13:27.379Z,74.86
2018-04-06T01:15:54.003Z,75.30
2018-04-06T01:18:20.763Z,75.80
2018-04-06T01:20:47.751Z,76.05
2018-04-06T01:23:15.162Z,75.96
2018-04-06T01:25:42.814Z,75.32
2018-04-06T01:28:10.163Z,75.31
2018-04-06T01:30:37.497Z,75.13
2018-04-06T01:33:04.887Z,74.27
2018-04-06T01:35:32.170Z,74.83
2018-04-06T01:37:59.115Z,74.97
2018-04-06T01:40:26.395Z,75.48
2018-04-06T01:42:53.302Z,75.87
2018-04-06T01:45:21.667Z,76.11
2018-04-06T01:47:50.054Z,75.91
2018-04-06T01:50:17.031Z,75.42
2018-04-06T01:52:43.983Z,75.55
2018-04-06T01:55:11.261Z,75.37
2018-04-06T01:57:38.823Z,75.63
2018-04-06T02:00:06.182Z,75.95
2018-04-06T02:02:33.498Z,75.40
2018-04-06T02:05:00.842Z,75.45
2018-04-06T02:07:28.742Z,75.44
2018-04-06T02:09:56.108Z,75.67
2018-04-06T02:12:23.554Z,75.54
2018-04-06T02:14:50.931Z,75.86
2018-04-06T02:17:18.231Z,75.62
2018-04-06T02:19:45.539Z,75.81
2018-04-06T02:22:12.822Z,76.06
2018-04-06T02:24:41.185Z,75.98
2018-04-06T02:27:08.463Z,76.44
2018-04-06T02:29:35.819Z,76.94
2018-04-06T02:32:03.138Z,76.90
2018-04-06T02:34:30.442Z,76.87
2018-04-06T02:36:57.878Z,76.59
2018-04-06T02:39:25.160Z,77.30
2018-04-06T02:41:52.515Z,77.06
2018-04-06T02:44:20.098Z,76.81
2018-04-06T02:46:47.382Z,76.69
2018-04-06T02:49:15.455Z,76.56
2018-04-06T02:51:42.761Z,76.74
2018-04-06T02:54:10.061Z,76.25
2018-04-06T02:56:38.109Z,76.71
2018-04-06T02:59:05.464Z,76.18
2018-04-06T03:01:33.548Z,76.48
2018-04-06T03:04:00.861Z,76.68
2018-04-06T03:06:28.158Z,75.87
2018-04-06T03:08:56.210Z,75.75
2018-04-06T03:11:23.530Z,75.75
2018-04-06T03:13:50.853Z,75.80
2018-04-06T03:16:18.141Z,75.78
2018-04-06T03:18:45.503Z,75.71
2018-04-06T03:21:12.802Z,75.69
2018-04-06T03:23:41.090Z,75.46
2018-04-06T03:26:08.444Z,75.46
2018-04-06T03:28:36.482Z,75.13
2018-04-06T03:31:04.125Z,75.11
2018-04-06T03:33:31.409Z,74.97
2018-04-06T03:35:58.782Z,75.08
2018-04-06T03:38:26.101Z,75.35
2018-04-06T03:40:53.378Z,74.95
2018-04-06T03:43:20.669Z,75.66
2018-04-06T03:45:47.985Z,75.64
2018-04-06T03:48:16.049Z,75.64
2018-04-06T03:50:44.119Z,75.38
2018-04-06T03:53:11.427Z,75.42
2018-04-06T03:55:38.734Z,75.91
2018-04-06T03:58:06.751Z,75.86
2018-04-06T04:00:34.074Z,75.47
2018-04-06T04:03:01.384Z,75.14
2018-04-06T04:05:28.670Z,75.14
2018-04-06T04:07:56.003Z,74.86
2018-04-06T04:10:23.354Z,74.96
2018-04-06T04:12:50.670Z,75.06
2018-04-06T04:15:18.001Z,74.99
2018-04-06T04:17:45.406Z,74.84
2018-04-06T04:20:13.446Z,74.70
2018-04-06T04:22:40.779Z,74.68
2018-04-06T04:25:08.082Z,74.59
2018-04-06T04:27:35.370Z,74.63
2018-04-06T04:30:03.484Z,74.69
2018-04-06T04:32:30.782Z,74.63
2018-04-06T04:34:58.197Z,74.60
2018-04-06T04:37:25.522Z,74.72
2018-04-06T04:39:53.833Z,74.76
2018-04-06T04:42:21.134Z,74.73
2018-04-06T04:44:47.675Z,74.10
2018-04-06T04:47:14.994Z,74.00
2018-04-06T04:49:41.950Z,73.81
2018-04-06T04:52:08.722Z,73.92
2018-04-06T04:54:36.033Z,73.89
2018-04-06T04:57:03.338Z,74.04
2018-04-06T04:59:30.252Z,73.97
2018-04-06T05:01:58.883Z,74.05
2018-04-06T05:04:26.197Z,73.94
2018-04-06T05:06:54.247Z,73.73
2018-04-06T05:09:21.550Z,73.38
2018-04-06T05:11:48.858Z,73.60
2018-04-06T05:14:15.509Z,73.45
2018-04-06T05:16:42.867Z,73.37
2018-04-06T05:19:10.173Z,73.42
2018-04-06T05:21:36.813Z,72.80
2018-04-06T05:24:03.459Z,72.77
2018-04-06T05:26:29.967Z,72.25
2018-04-06T05:28:57.289Z,71.94
2018-04-06T05:31:24.642Z,71.45
2018-04-06T05:33:51.937Z,71.69
2018-04-06T05:36:19.237Z,71.84
2018-04-06T05:38:47.380Z,71.54
2018-04-06T05:41:14.640Z,70.37
2018-04-06T05:43:43.074Z,70.27
2018-04-06T05:46:10.417Z,69.76
2018-04-06T05:48:37.738Z,69.16
2018-04-06T05:51:06.235Z,69.20
2018-04-06T05:53:33.531Z,69.01
2018-04-06T05:56:01.839Z,68.41
2018-04-06T05:58:30.054Z,67.92
2018-04-06T06:00:57.385Z,67.96
2018-04-06T06:03:24.741Z,67.39
2018-04-06T06:05:52.767Z,67.09
2018-04-06T06:08:20.449Z,66.64
2018-04-06T06:10:49.330Z,66.41
2018-04-06T06:13:16.636Z,66.01
2018-04-06T06:15:43.998Z,66.24
2018-04-06T06:18:11.343Z,65.35
2018-04-06T06:20:38.686Z,64.63
2018-04-06T06:23:06.394Z,63.78
2018-04-06T06:25:33.715Z,64.26
2018-04-06T06:28:01.674Z,64.43
2018-04-06T06:30:29.674Z,63.66
2018-04-06T06:32:57.011Z,62.62
2018-04-06T06:35:24.318Z,62.48
2018-04-06T06:37:51.653Z,62.90
2018-04-06T06:40:18.965Z,62.71
2018-04-06T06:42:46.278Z,61.23
2018-04-06T06:45:13.636Z,61.68
2018-04-06T06:47:40.973Z,61.20
2018-04-06T06:50:08.351Z,60.34
2018-04-06T06:52:35.713Z,58.94
2018-04-06T06:55:03.076Z,59.62
2018-04-06T06:57:30.458Z,59.93
2018-04-06T06:59:57.786Z,58.48
2018-04-06T07:02:25.102Z,58.96
2018-04-06T07:04:52.440Z,58.78
2018-04-06T07:07:19.776Z,57.49
2018-04-06T07:09:47.085Z,56.25
2018-04-06T07:12:14.419Z,55.81
2018-04-06T07:14:42.501Z,56.43
2018-04-06T07:17:10.415Z,55.67
2018-04-06T07:19:37.852Z,53.96
2018-04-06T07:22:05.159Z,54.11
2018-04-06T07:24:32.487Z,51.61
2018-04-06T07:26:59.799Z,52.14
2018-04-06T07:29:27.126Z,50.91
2018-04-06T07:31:54.468Z,50.28
2018-04-06T07:34:21.779Z,50.60
2018-04-06T07:36:49.134Z,48.94
2018-04-06T07:39:16.490Z,47.98
2018-04-06T07:41:43.809Z,46.28
2018-04-06T07:44:11.893Z,45.16
2018-04-06T07:46:39.958Z,43.91
2018-04-06T07:49:08.614Z,45.66
2018-04-06T07:51:35.963Z,44.77
2018-04-06T07:54:03.308Z,44.08
2018-04-06T07:56:30.896Z,42.60
2018-04-06T07:58:58.199Z,43.50
2018-04-06T08:01:25.524Z,43.40
2018-04-06T08:03:53.599Z,43.26
2018-04-06T08:06:21.733Z,42.70
2018-04-06T08:08:49.022Z,40.28
2018-04-06T08:11:17.099Z,38.98
2018-04-06T08:13:44.455Z,38.96
2018-04-06T08:16:11.763Z,37.59
2018-04-06T08:18:39.124Z,38.86
2018-04-06T08:21:06.438Z,38.87
2018-04-06T08:23:33.779Z,39.94
2018-04-06T08:26:01.110Z,37.83
2018-04-06T08:28:28.447Z,38.37
2018-04-06T08:30:56.546Z,39.19
2018-04-06T08:33:24.650Z,37.83
2018-04-06T08:35:52.613Z,36.24
2018-04-06T08:38:19.918Z,37.85
2018-04-06T08:40:47.256Z,37.98
2018-04-06T08:43:14.647Z,37.98
2018-04-06T08:45:42.698Z,36.36
2018-04-06T08:48:10.186Z,34.76
2018-04-06T08:50:38.524Z,35.00
2018-04-06T08:53:06.866Z,34.86
2018-04-06T08:55:34.209Z,34.75
2018-04-06T08:58:01.808Z,34.29
2018-04-06T09:00:29.181Z,32.70
2018-04-06T09:02:56.507Z,32.91
2018-04-06T09:05:23.835Z,32.68
2018-04-06T09:07:51.155Z,33.18
2018-04-06T09:10:19.258Z,31.30
2018-04-06T09:12:47.583Z,31.12
2018-04-06T09:15:15.594Z,29.36
2018-04-06T09:17:42.920Z,29.58
2018-04-06T09:20:10.411Z,30.49
2018-04-06T09:22:38.782Z,30.90
2018-04-06T09:25:06.155Z,30.04
2018-04-06T09:27:33.944Z,30.99
2018-04-06T09:30:01.272Z,29.70
2018-04-06T09:32:28.574Z,30.57
2018-04-06T09:34:55.909Z,28.87
2018-04-06T09:37:23.314Z,27.96
2018-04-06T09:39:50.641Z,27.64
2018-04-06T09:42:18.024Z,27.30
2018-04-06T09:44:45.358Z,27.51
2018-04-06T09:47:12.716Z,26.66
2018-04-06T09:49:40.030Z,27.37
2018-04-06T09:52:07.361Z,26.86
2018-04-06T09:54:36.002Z,27.07
2018-04-06T09:57:03.343Z,26.75
2018-04-06T09:59:31.401Z,27.17
2018-04-06T10:01:58.782Z,28.30
2018-04-06T10:04:27.154Z,27.85
2018-04-06T10:06:54.559Z,25.71
2018-04-06T10:09:21.919Z,26.75
2018-04-06T10:11:49.269Z,26.82
2018-04-06T10:14:16.693Z,26.77
2018-04-06T10:16:45.007Z,27.28
2018-04-06T10:19:12.374Z,27.76
2018-04-06T10:21:40.306Z,26.74
2018-04-06T10:24:07.610Z,27.73
2018-04-06T10:26:35.005Z,27.64
2018-04-06T10:29:02.356Z,27.93
2018-04-06T10:31:30.570Z,27.16
2018-04-06T10:33:57.918Z,27.58
2018-04-06T10:36:25.305Z,28.15
2018-04-06T10:38:52.626Z,26.87
2018-04-06T10:41:20.071Z,27.79
2018-04-06T10:43:47.388Z,26.60
2018-04-06T10:46:14.741Z,26.65
2018-04-06T10:48:42.060Z,25.82
2018-04-06T10:51:09.391Z,25.99
2018-04-06T10:53:36.731Z,25.73
2018-04-06T10:56:04.075Z,27.89
2018-04-06T10:58:31.722Z,26.34
2018-04-06T11:00:59.062Z,26.95
2018-04-06T11:03:26.393Z,27.10
2018-04-06T11:05:54.539Z,27.62
2018-04-06T11:08:21.873Z,28.96
2018-04-06T11:10:49.222Z,28.72
2018-04-06T11:13:16.574Z,28.99
2018-04-06T11:15:43.961Z,29.08
2018-04-06T11:18:11.294Z,29.58
2018-04-06T11:20:38.715Z,30.03
2018-04-06T11:23:06.819Z,28.94
2018-04-06T11:25:34.915Z,27.83
2018-04-06T11:28:03.239Z,27.90
2018-04-06T11:30:30.653Z,29.56
2018-04-06T11:32:58.033Z,33.53
2018-04-06T11:35:25.379Z,30.47
2018-04-06T11:37:52.731Z,29.74
2018-04-06T11:40:20.979Z,30.03
2018-04-06T11:42:48.420Z,28.58
2018-04-06T11:45:15.768Z,28.56
2018-04-06T11:47:43.080Z,27.58
2018-04-06T11:50:10.435Z,28.87
2018-04-06T11:52:37.787Z,29.27
2018-04-06T11:55:05.233Z,30.52
2018-04-06T11:57:32.555Z,30.62
2018-04-06T12:00:00.197Z,31.81
2018-04-06T12:02:27.561Z,30.97
2018-04-06T12:04:54.932Z,31.72
2018-04-06T12:07:22.299Z,31.67
2018-04-06T12:09:49.631Z,31.53
2018-04-06T12:12:17.033Z,32.63
2018-04-06T12:14:44.370Z,33.15
2018-04-06T12:17:11.742Z,32.92
2018-04-06T12:19:39.223Z,33.21
2018-04-06T12:22:06.590Z,33.44
2018-04-06T12:24:33.962Z,34.33
2018-04-06T12:27:01.318Z,33.64
2018-04-06T12:29:28.734Z,33.68
2018-04-06T12:31:56.170Z,32.72
2018-04-06T12:34:23.527Z,32.54
2018-04-06T12:36:50.939Z,32.07
2018-04-06T12:39:18.277Z,32.36
2018-04-06T12:41:46.586Z,32.08
2018-04-06T12:44:14.859Z,32.98
2018-04-06T12:46:42.199Z,31.47
2018-04-06T12:49:09.710Z,30.92
2018-04-06T12:51:37.024Z,33.13
2018-04-06T12:54:04.394Z,34.17
2018-04-06T12:56:31.754Z,33.94
2018-04-06T12:58:59.061Z,34.05
2018-04-06T13:01:26.432Z,34.66
2018-04-06T13:03:54.616Z,33.40
2018-04-06T13:06:21.955Z,32.68
2018-04-06T13:08:49.313Z,33.19
2018-04-06T13:11:16.690Z,33.17
2018-04-06T13:13:44.068Z,32.36
2018-04-06T13:16:12.177Z,32.81
2018-04-06T13:18:39.518Z,31.78
2018-04-06T13:21:06.891Z,33.17
2018-04-06T13:23:34.252Z,32.50
2018-04-06T13:26:01.606Z,32.63
2018-04-06T13:28:28.967Z,32.79
2018-04-06T13:30:56.391Z,32.26
2018-04-06T13:33:23.737Z,32.40
2018-04-06T13:35:51.381Z,32.87
2018-04-06T13:38:18.713Z,32.59
2018-04-06T13:40:46.032Z,31.47
2018-04-06T13:43:13.403Z,32.51
2018-04-06T13:45:40.800Z,31.52
2018-04-06T13:48:08.155Z,34.01
2018-04-06T13:50:35.473Z,31.41
2018-04-06T13:53:02.867Z,32.42
2018-04-06T13:55:30.210Z,32.48
2018-04-06T13:57:57.547Z,31.90
2018-04-06T14:00:24.888Z,31.84
2018-04-06T14:02:53.406Z,32.07
2018-04-06T14:05:20.759Z,31.20
2018-04-06T14:07:48.174Z,31.35
2018-04-06T14:10:15.605Z,31.33
2018-04-06T14:12:42.938Z,32.41
2018-04-06T14:15:10.329Z,32.38
2018-04-06T14:17:38.406Z,33.98
2018-04-06T14:20:05.807Z,32.30
2018-04-06T14:22:33.265Z,32.16
2018-04-06T14:25:00.720Z,31.52
2018-04-06T14:27:28.647Z,32.22
2018-04-06T14:29:56.381Z,31.58
2018-04-06T14:32:24.647Z,31.21
2018-04-06T14:34:55.605Z,29.69
2018-04-06T14:37:22.950Z,30.57
2018-04-06T14:39:50.313Z,30.28
2018-04-06T14:42:21.161Z,31.92
2018-04-06T14:44:48.527Z,31.13
2018-04-06T14:47:16.358Z,30.56
2018-04-06T14:49:44.434Z,32.22
2018-04-06T14:52:13.898Z,31.37
2018-04-06T14:54:41.217Z,31.78
2018-04-06T14:57:08.574Z,32.28
2018-04-06T14:59:35.974Z,32.54
2018-04-06T15:02:05.923Z,32.34
2018-04-06T15:04:33.276Z,33.54
2018-04-06T15:07:00.711Z,33.55
2018-04-06T15:09:28.061Z,33.80
2018-04-06T15:11:58.753Z,32.57
2018-04-06T15:14:27.308Z,33.06
2018-04-06T15:16:54.671Z,33.15
2018-04-06T15:19:22.022Z,32.65
2018-04-06T15:21:52.037Z,31.65
2018-04-06T15:24:20.444Z,31.85
2018-04-06T15:26:47.760Z,31.61
2018-04-06T15:29:15.417Z,32.26
2018-04-06T15:31:42.877Z,33.06
2018-04-06T15:34:10.334Z,32.93
2018-04-06T15:36:38.265Z,31.83
2018-04-06T15:39:05.621Z,31.96
2018-04-06T15:41:35.259Z,31.70
2018-04-06T15:44:02.761Z,31.65
2018-04-06T15:46:30.072Z,31.34
2018-04-06T15:49:00.799Z,32.41
2018-04-06T15:51:28.154Z,32.61
2018-04-06T15:53:58.949Z,31.56
2018-04-06T15:56:26.262Z,31.75
2018-04-06T15:58:53.751Z,30.61
2018-04-06T16:01:21.114Z,31.12
2018-04-06T16:03:50.758Z,31.83
2018-04-06T16:06:18.107Z,32.17
2018-04-06T16:08:48.808Z,32.12
2018-04-06T16:11:16.343Z,31.71
2018-04-06T16:13:43.726Z,31.85
2018-04-06T16:16:13.607Z,31.72
2018-04-06T16:18:42.148Z,31.80
2018-04-06T16:21:09.467Z,31.92
2018-04-06T16:23:39.641Z,32.53
2018-04-06T16:26:07.057Z,33.27
2018-04-06T16:28:34.451Z,32.54
2018-04-06T16:31:01.829Z,32.79
2018-04-06T16:33:32.700Z,32.79
2018-04-06T16:36:00.960Z,33.81
2018-04-06T16:38:29.092Z,33.84
2018-04-06T16:40:56.403Z,33.82
2018-04-06T16:43:23.738Z,32.51
2018-04-06T16:45:51.072Z,32.35
2018-04-06T16:48:18.684Z,32.62
2018-04-06T16:50:49.443Z,32.82
2018-04-06T16:53:16.797Z,33.31
2018-04-06T16:55:44.182Z,33.54
2018-04-06T16:58:11.550Z,33.83
2018-04-06T17:00:38.943Z,34.70
2018-04-06T17:03:06.343Z,35.45
2018-04-06T17:05:33.644Z,35.93
2018-04-06T17:08:04.543Z,36.98
2018-04-06T17:10:31.868Z,37.83
2018-04-06T17:12:59.194Z,38.83
2018-04-06T17:15:27.298Z,39.12
2018-04-06T17:17:55.030Z,39.48
2018-04-06T17:20:22.458Z,40.06
2018-04-06T17:22:54.116Z,40.46
2018-04-06T17:25:21.457Z,40.89
2018-04-06T17:27:48.803Z,40.49
2018-04-06T17:30:16.152Z,41.08
2018-04-06T17:32:43.524Z,41.45
2018-04-06T17:35:14.299Z,41.60
2018-04-06T17:37:42.655Z,41.97
2018-04-06T17:40:10.119Z,42.00
2018-04-06T17:42:37.946Z,42.21
2018-04-06T17:45:05.417Z,42.61
2018-04-06T17:47:33.564Z,42.92
2018-04-06T17:50:01.435Z,43.09
2018-04-06T17:52:29.819Z,43.41
2018-04-06T17:54:57.973Z,43.81
2018-04-06T17:57:25.868Z,43.97
2018-04-06T17:59:53.312Z,44.05
2018-04-06T18:02:20.689Z,44.51
2018-04-06T18:04:48.028Z,44.65
2018-04-06T18:07:20.415Z,44.96
2018-04-06T18:09:47.775Z,45.22
2018-04-06T18:12:17.407Z,45.57
2018-04-06T18:14:44.771Z,45.81
2018-04-06T18:17:14.632Z,45.82
2018-04-06T18:19:41.991Z,45.85
2018-04-06T18:22:09.387Z,46.12
2018-04-06T18:24:36.729Z,46.30
2018-04-06T18:27:04.102Z,46.35
2018-04-06T18:29:32.187Z,46.61
2018-04-06T18:31:59.811Z,46.83
2018-04-06T18:34:27.743Z,47.22
2018-04-06T18:36:55.088Z,47.60
2018-04-06T18:39:22.438Z,47.65
2018-04-06T18:41:53.234Z,47.73
2018-04-06T18:44:20.639Z,48.09
2018-04-06T18:46:51.391Z,48.45
2018-04-06T18:49:18.796Z,48.58
2018-04-06T18:51:46.301Z,48.52
2018-04-06T18:54:18.210Z,48.70
2018-04-06T18:56:45.622Z,49.14
2018-04-06T18:59:13.792Z,49.13
2018-04-06T19:01:41.159Z,49.35
2018-04-06T19:04:11.924Z,49.43
2018-04-06T19:06:40.014Z,49.53
2018-04-06T19:09:10.777Z,49.62
2018-04-06T19:11:38.097Z,49.78
2018-04-06T19:14:09.620Z,50.04
2018-04-06T19:16:36.974Z,49.64
2018-04-06T19:19:07.542Z,49.88
2018-04-06T19:21:34.923Z,49.83
2018-04-06T19:24:02.311Z,50.33
2018-04-06T19:26:33.059Z,50.34
2018-04-06T19:29:00.488Z,50.16
2018-04-06T19:31:32.224Z,50.20
2018-04-06T19:33:59.578Z,50.41
2018-04-06T19:36:30.578Z,50.32
2018-04-06T19:38:58.654Z,50.22
2018-04-06T19:41:28.522Z,50.42
2018-04-06T19:43:56.562Z,50.47
2018-04-06T19:46:27.316Z,50.50
2018-04-06T19:48:54.647Z,50.38
2018-04-06T19:51:25.300Z,50.79
2018-04-06T19:53:52.681Z,50.58
2018-04-06T19:56:23.426Z,50.56
2018-04-06T19:58:50.891Z,50.48
2018-04-06T20:01:22.696Z,50.75
2018-04-06T20:03:50.055Z,50.89
2018-04-06T20:06:20.719Z,51.06
2018-04-06T20:08:48.019Z,51.03
2018-04-06T20:11:18.015Z,51.15
2018-04-06T20:13:45.364Z,51.14
2018-04-06T20:16:17.524Z,51.24
2018-04-06T20:18:45.136Z,51.18
2018-04-06T20:21:17.099Z,51.16
2018-04-06T20:23:45.467Z,51.22
2018-04-06T20:26:15.325Z,51.51
2018-04-06T20:28:43.799Z,51.48
2018-04-06T20:31:11.122Z,51.45
2018-04-06T20:33:43.149Z,51.53
2018-04-06T20:36:10.467Z,51.72
2018-04-06T20:38:42.799Z,51.80
2018-04-06T20:41:11.618Z,51.77
2018-04-06T20:43:43.611Z,51.79
2018-04-06T20:46:11.612Z,52.18
2018-04-06T20:48:42.394Z,51.79
2018-04-06T20:51:09.705Z,51.80
2018-04-06T20:53:41.579Z,51.87
2018-04-06T20:56:09.922Z,51.68
2018-04-06T20:58:39.896Z,51.83
2018-04-06T21:01:07.301Z,51.96
2018-04-06T21:03:37.387Z,52.17
2018-04-06T21:06:04.741Z,52.16
2018-04-06T21:08:34.758Z,51.96
2018-04-06T21:11:03.093Z,52.35
2018-04-06T21:13:35.818Z,52.65
2018-04-06T21:16:03.162Z,52.66
2018-04-06T21:18:35.209Z,52.65
2018-04-06T21:21:02.571Z,52.66
2018-04-06T21:23:36.789Z,52.79
2018-04-06T21:26:04.144Z,52.78
2018-04-06T21:28:36.988Z,53.20
2018-04-06T21:31:05.432Z,53.17
2018-04-06T21:33:32.834Z,53.47
2018-04-06T21:36:03.621Z,53.36
2018-04-06T21:38:30.955Z,53.37
2018-04-06T21:41:01.665Z,53.81
2018-04-06T21:43:29.017Z,53.79
2018-04-06T21:45:59.674Z,53.67
2018-04-06T21:48:27.047Z,53.72
2018-04-06T21:50:55.159Z,53.75
2018-04-06T21:53:22.479Z,53.95
2018-04-06T21:55:49.886Z,53.76
2018-04-06T21:58:17.123Z,53.93
2018-04-06T22:00:44.287Z,53.90
2018-04-06T22:03:15.355Z,54.26
2018-04-06T22:05:42.771Z,54.42
2018-04-06T22:08:18.345Z,54.46
2018-04-06T22:10:45.688Z,54.57
2018-04-06T22:13:17.910Z,54.66
2018-04-06T22:15:45.225Z,54.84
2018-04-06T22:18:17.213Z,55.03
2018-04-06T22:20:45.614Z,55.21
2018-04-06T22:23:12.999Z,55.48
2018-04-06T22:25:42.938Z,55.80
2018-04-06T22:28:14.406Z,56.10
2018-04-06T22:30:42.461Z,55.98
2018-04-06T22:33:14.469Z,56.01
2018-04-06T22:35:42.844Z,56.05
2018-04-06T22:38:13.574Z,56.01
2018-04-06T22:40:41.904Z,56.13
2018-04-06T22:43:13.646Z,56.35
2018-04-06T22:45:42.083Z,56.44
2018-04-06T22:48:10.106Z,56.54
2018-04-06T22:50:40.007Z,56.59
2018-04-06T22:53:09.215Z,56.87
2018-04-06T22:55:37.649Z,56.88
2018-04-06T22:58:05.107Z,56.84
2018-04-06T23:00:37.307Z,57.10
2018-04-06T23:03:04.680Z,56.99
2018-04-06T23:05:34.544Z,57.20
2018-04-06T23:08:03.001Z,57.27
2018-04-06T23:10:31.064Z,57.38
2018-04-06T23:13:03.298Z,57.57
2018-04-06T23:15:31.738Z,57.67
2018-04-06T23:18:01.680Z,57.63
2018-04-06T23:20:29.549Z,57.51
2018-04-06T23:23:00.848Z,57.78
2018-04-06T23:25:28.134Z,57.71
2018-04-06T23:28:00.127Z,57.63
2018-04-06T23:30:27.446Z,57.85
2018-04-06T23:33:00.525Z,58.19
2018-04-06T23:35:28.650Z,58.46
2018-04-06T23:37:58.986Z,58.41
2018-04-06T23:40:26.294Z,58.59
2018-04-06T23:42:57.563Z,58.91
2018-04-06T23:45:26.789Z,59.00
2018-04-06T23:47:54.083Z,59.11
2018-04-06T23:50:26.128Z,59.19
2018-04-06T23:52:54.194Z,59.15
2018-04-06T23:55:24.896Z,59.53
2018-04-06T23:57:52.222Z,59.62
